createdAt,value
2019-02-16T00:00:55.691Z,10.37
2019-02-16T00:03:31.564Z,14.17
2019-02-16T00:06:04.214Z,14.23
2019-02-16T00:08:35.871Z,14.83
2019-02-16T00:11:09.048Z,15.80
2019-02-16T00:13:41.330Z,12.93
2019-02-16T00:16:13.196Z,14.10
2019-02-16T00:18:44.770Z,13.77
2019-02-16T00:21:17.120Z,11.33
2019-02-16T00:23:48.745Z,10.70
2019-02-16T00:26:20.897Z,11.80
2019-02-16T00:28:52.585Z,8.90
2019-02-16T00:31:24.242Z,13.73
2019-02-16T00:34:01.305Z,9.13
2019-02-16T00:36:33.808Z,8.57
2019-02-16T00:39:06.184Z,9.67
2019-02-16T00:41:37.798Z,11.23
2019-02-16T00:44:12.128Z,10.07
2019-02-16T00:46:43.719Z,13.07
2019-02-16T00:49:15.392Z,12.10
2019-02-16T00:51:48.874Z,11.07
2019-02-16T00:54:20.500Z,10.00
2019-02-16T00:56:53.394Z,12.03
2019-02-16T00:59:25.143Z,13.80
2019-02-16T01:01:57.233Z,13.30
2019-02-16T01:04:33.814Z,6.70
2019-02-16T01:07:05.872Z,9.40
2019-02-16T01:09:37.508Z,14.43
2019-02-16T01:12:09.193Z,11.53
2019-02-16T01:14:40.813Z,13.23
2019-02-16T01:17:12.496Z,12.60
2019-02-16T01:19:44.190Z,11.00
2019-02-16T01:22:16.368Z,15.43
2019-02-16T01:24:48.240Z,11.67
2019-02-16T01:27:19.991Z,9.40
2019-02-16T01:29:53.237Z,16.40
2019-02-16T01:32:24.831Z,14.07
2019-02-16T01:34:57.793Z,9.70
2019-02-16T01:37:34.511Z,11.70
2019-02-16T01:40:10.338Z,18.00
2019-02-16T01:42:42.851Z,12.40
2019-02-16T01:45:15.637Z,10.10
2019-02-16T01:47:47.390Z,11.37
2019-02-16T01:50:20.106Z,12.13
2019-02-16T01:52:51.725Z,12.37
2019-02-16T01:55:24.013Z,13.30
2019-02-16T01:57:55.679Z,10.00
2019-02-16T02:00:28.006Z,12.93
2019-02-16T02:02:59.633Z,13.53
2019-02-16T02:05:31.261Z,11.77
2019-02-16T02:08:02.875Z,13.20
2019-02-16T02:10:35.563Z,10.30
2019-02-16T02:13:09.518Z,8.97
2019-02-16T02:15:41.115Z,11.00
2019-02-16T02:18:13.003Z,11.50
2019-02-16T02:20:44.987Z,10.27
2019-02-16T02:23:16.559Z,14.40
2019-02-16T02:25:49.042Z,7.63
2019-02-16T02:28:20.662Z,9.17
2019-02-16T02:30:52.656Z,16.97
2019-02-16T02:33:24.294Z,10.40
2019-02-16T02:35:55.898Z,12.17
2019-02-16T02:38:27.645Z,13.47
2019-02-16T02:41:00.067Z,12.50
2019-02-16T02:43:34.792Z,11.13
2019-02-16T02:46:06.499Z,12.17
2019-02-16T02:48:38.100Z,15.00
2019-02-16T02:51:09.721Z,13.67
2019-02-16T02:53:41.344Z,12.03
2019-02-16T02:56:13.811Z,13.93
2019-02-16T02:58:45.395Z,10.00
2019-02-16T03:01:17.615Z,13.73
2019-02-16T03:03:49.418Z,9.23
2019-02-16T03:06:22.106Z,11.33
2019-02-16T03:08:53.759Z,12.37
2019-02-16T03:11:26.098Z,8.17
2019-02-16T03:13:58.416Z,14.83
2019-02-16T03:16:30.168Z,12.03
2019-02-16T03:19:01.855Z,10.37
2019-02-16T03:21:33.480Z,11.00
2019-02-16T03:24:05.080Z,16.87
2019-02-16T03:27:13.314Z,11.33
2019-02-16T03:30:23.240Z,12.40
2019-02-16T03:33:22.426Z,11.90
2019-02-16T03:36:50.726Z,8.77
2019-02-16T03:39:29.919Z,8.87
2019-02-16T03:42:01.807Z,13.47
2019-02-16T03:44:33.411Z,10.53
2019-02-16T03:47:05.686Z,12.17
2019-02-16T03:49:37.269Z,12.70
2019-02-16T03:52:13.750Z,10.00
2019-02-16T03:54:42.266Z,11.70
2019-02-16T03:57:14.299Z,11.50
2019-02-16T03:59:46.934Z,11.13
2019-02-16T04:02:18.634Z,10.10
2019-02-16T04:04:50.930Z,10.33
2019-02-16T04:07:23.733Z,11.23
2019-02-16T04:09:55.453Z,12.13
2019-02-16T04:12:27.793Z,10.67
2019-02-16T04:14:59.400Z,17.67
2019-02-16T04:17:30.976Z,12.10
2019-02-16T04:20:03.219Z,11.73
2019-02-16T04:22:34.817Z,9.43
2019-02-16T04:25:08.000Z,9.77
2019-02-16T04:27:39.647Z,10.70
2019-02-16T04:30:11.338Z,10.47
2019-02-16T04:32:42.958Z,10.43
2019-02-16T04:35:15.625Z,10.13
2019-02-16T04:37:47.215Z,10.20
2019-02-16T04:40:18.822Z,10.07
2019-02-16T04:42:50.563Z,12.47
2019-02-16T04:45:22.178Z,11.47
2019-02-16T04:47:53.768Z,11.30
2019-02-16T04:50:26.057Z,10.00
2019-02-16T04:52:59.603Z,9.30
2019-02-16T04:55:31.214Z,8.73
2019-02-16T04:58:02.871Z,11.27
2019-02-16T05:00:34.511Z,12.33
2019-02-16T05:03:06.231Z,12.27
2019-02-16T05:05:38.563Z,11.23
2019-02-16T05:08:10.194Z,12.70
2019-02-16T05:10:41.828Z,10.70
2019-02-16T05:13:14.288Z,12.43
2019-02-16T05:15:45.874Z,10.57
2019-02-16T05:18:17.575Z,10.60
2019-02-16T05:20:50.013Z,9.20
2019-02-16T05:23:21.660Z,9.37
2019-02-16T05:25:53.296Z,10.63
2019-02-16T05:28:24.956Z,7.47
2019-02-16T05:30:56.590Z,8.13
2019-02-16T05:33:28.355Z,9.77
2019-02-16T05:36:00.577Z,10.03
2019-02-16T05:38:32.446Z,9.73
2019-02-16T05:41:04.088Z,10.10
2019-02-16T05:43:35.756Z,7.70
2019-02-16T05:46:07.788Z,10.77
2019-02-16T05:48:39.398Z,10.33
2019-02-16T05:51:13.225Z,13.97
2019-02-16T05:53:44.933Z,9.63
2019-02-16T05:56:16.719Z,11.33
2019-02-16T05:58:48.528Z,13.87
2019-02-16T06:01:20.270Z,14.40
2019-02-16T06:03:51.925Z,9.93
2019-02-16T06:06:24.331Z,8.13
2019-02-16T06:08:56.190Z,8.13
2019-02-16T06:11:27.921Z,10.37
2019-02-16T06:14:00.367Z,10.57
2019-02-16T06:16:31.977Z,9.60
2019-02-16T06:19:03.748Z,10.70
2019-02-16T06:21:35.377Z,10.37
2019-02-16T06:24:07.491Z,10.80
2019-02-16T06:26:39.307Z,10.77
2019-02-16T06:29:10.933Z,11.37
2019-02-16T06:31:42.677Z,14.63
2019-02-16T06:34:14.439Z,14.13
2019-02-16T06:36:46.141Z,15.30
2019-02-16T06:39:19.599Z,13.97
2019-02-16T06:41:51.417Z,16.03
2019-02-16T06:44:23.198Z,12.10
2019-02-16T06:46:54.911Z,12.77
2019-02-16T06:49:28.030Z,10.50
2019-02-16T06:51:59.795Z,10.87
2019-02-16T06:54:32.056Z,8.07
2019-02-16T06:57:21.640Z,13.40
2019-02-16T06:59:53.579Z,9.57
2019-02-16T07:02:26.570Z,10.70
2019-02-16T07:04:58.228Z,9.90
2019-02-16T07:07:30.117Z,9.30
2019-02-16T07:10:02.673Z,14.07
2019-02-16T07:12:34.303Z,10.00
2019-02-16T07:15:07.128Z,10.80
2019-02-16T07:18:06.701Z,8.73
2019-02-16T07:20:38.532Z,10.17
2019-02-16T07:23:10.158Z,9.73
2019-02-16T07:25:42.516Z,20.50
2019-02-16T07:28:14.206Z,10.07
2019-02-16T07:30:45.926Z,11.10
2019-02-16T07:33:17.539Z,11.53
2019-02-16T07:35:49.259Z,11.50
2019-02-16T07:38:21.860Z,14.60
2019-02-16T07:40:54.204Z,13.40
2019-02-16T07:43:56.833Z,9.33
2019-02-16T07:46:40.919Z,10.83
2019-02-16T07:49:20.128Z,12.77
2019-02-16T07:51:56.799Z,19.17
2019-02-16T07:54:50.478Z,13.37
2019-02-16T07:57:37.725Z,13.17
2019-02-16T08:00:18.058Z,14.13
2019-02-16T08:03:03.075Z,16.80
2019-02-16T08:05:42.584Z,14.60
2019-02-16T08:08:41.188Z,14.40
2019-02-16T08:11:44.638Z,11.47
2019-02-16T08:14:44.423Z,11.90
2019-02-16T08:17:30.710Z,16.53
2019-02-16T08:20:24.220Z,9.70
2019-02-16T08:23:21.155Z,10.87
2019-02-16T08:26:17.714Z,9.50
2019-02-16T08:29:21.606Z,10.07
2019-02-16T08:32:21.254Z,10.53
2019-02-16T08:35:25.871Z,12.73
2019-02-16T08:38:10.407Z,13.93
2019-02-16T08:40:55.759Z,11.57
2019-02-16T08:43:47.358Z,101.27
2019-02-16T08:46:41.372Z,63.47
2019-02-16T08:49:33.373Z,98.97
2019-02-16T08:52:26.669Z,109.63
2019-02-16T08:55:20.415Z,43.40
2019-02-16T08:58:19.872Z,45.97
2019-02-16T09:01:07.507Z,71.47
2019-02-16T09:03:54.488Z,88.57
2019-02-16T09:06:57.669Z,41.50
2019-02-16T09:09:51.207Z,25.37
2019-02-16T09:12:40.682Z,14.73
2019-02-16T09:15:28.763Z,14.90
2019-02-16T09:18:24.440Z,15.80
2019-02-16T09:21:15.046Z,27.73
2019-02-16T09:24:06.944Z,24.60
2019-02-16T09:27:10.676Z,26.53
2019-02-16T09:30:04.505Z,16.67
2019-02-16T09:32:43.711Z,22.63
2019-02-16T09:35:43.897Z,21.53
2019-02-16T09:38:23.128Z,15.90
2019-02-16T09:41:23.762Z,13.20
2019-02-16T09:44:20.205Z,15.47
2019-02-16T09:47:16.887Z,14.00
2019-02-16T09:50:16.521Z,18.20
2019-02-16T09:53:05.890Z,15.07
2019-02-16T09:56:00.030Z,15.27
2019-02-16T09:58:50.567Z,18.23
2019-02-16T10:01:40.119Z,13.13
2019-02-16T10:04:19.460Z,14.13
2019-02-16T10:07:11.405Z,17.80
2019-02-16T10:10:06.086Z,13.13
2019-02-16T10:12:51.671Z,15.47
2019-02-16T10:15:45.371Z,15.90
2019-02-16T10:18:47.551Z,16.33
2019-02-16T10:21:43.096Z,14.53
2019-02-16T10:24:36.770Z,13.53
2019-02-16T10:27:21.791Z,14.50
2019-02-16T10:30:11.076Z,14.87
2019-02-16T10:33:12.704Z,15.87
2019-02-16T10:36:12.504Z,17.23
2019-02-16T10:39:30.646Z,14.47
2019-02-16T10:42:22.464Z,15.80
2019-02-16T10:45:16.547Z,17.53
2019-02-16T10:48:09.816Z,18.77
2019-02-16T10:50:53.959Z,16.87
2019-02-16T10:53:34.135Z,19.43
2019-02-16T10:56:27.911Z,16.40
2019-02-16T10:59:25.106Z,15.20
2019-02-16T11:02:07.389Z,14.87
2019-02-16T11:04:56.839Z,16.90
2019-02-16T11:07:47.889Z,15.67
2019-02-16T11:10:39.948Z,14.07
2019-02-16T11:13:29.579Z,18.60
2019-02-16T11:16:21.359Z,18.70
2019-02-16T11:19:20.892Z,18.47
2019-02-16T11:22:11.233Z,15.67
2019-02-16T11:25:01.779Z,17.80
2019-02-16T11:27:52.398Z,16.50
2019-02-16T11:30:43.039Z,19.50
2019-02-16T11:33:25.533Z,14.10
2019-02-16T11:36:18.924Z,16.83
2019-02-16T11:39:10.259Z,19.17
2019-02-16T11:42:16.131Z,17.30
2019-02-16T11:45:08.793Z,17.90
2019-02-16T11:48:03.042Z,18.23
2019-02-16T11:50:54.560Z,19.40
2019-02-16T11:53:33.652Z,16.73
2019-02-16T11:56:22.221Z,13.00
2019-02-16T11:59:15.909Z,14.93
2019-02-16T12:02:12.403Z,17.40
2019-02-16T12:04:52.658Z,14.80
2019-02-16T12:07:47.801Z,16.50
2019-02-16T12:10:37.148Z,16.67
2019-02-16T12:13:20.557Z,19.97
2019-02-16T12:16:04.397Z,14.30
2019-02-16T12:18:45.168Z,18.53
2019-02-16T12:21:34.380Z,15.27
2019-02-16T12:24:23.753Z,15.87
2019-02-16T12:27:20.321Z,15.00
2019-02-16T12:30:11.609Z,16.40
2019-02-16T12:32:54.176Z,18.63
2019-02-16T12:35:50.710Z,19.27
2019-02-16T12:38:40.468Z,16.13
2019-02-16T12:41:36.653Z,13.60
2019-02-16T12:44:42.871Z,14.73
2019-02-16T12:47:36.753Z,23.40
2019-02-16T12:50:33.254Z,14.90
2019-02-16T12:53:22.902Z,20.13
2019-02-16T12:56:24.424Z,16.87
2019-02-16T12:59:16.030Z,15.33
2019-02-16T13:02:13.924Z,15.50
2019-02-16T13:04:56.411Z,15.03
2019-02-16T13:07:48.735Z,15.50
2019-02-16T13:10:45.515Z,15.40
2019-02-16T13:13:31.618Z,14.20
2019-02-16T13:16:10.472Z,15.23
2019-02-16T13:18:59.909Z,14.23
2019-02-16T13:21:53.311Z,14.17
2019-02-16T13:24:40.850Z,13.87
2019-02-16T13:27:21.105Z,14.00
2019-02-16T13:30:04.370Z,14.87
2019-02-16T13:33:10.509Z,11.00
2019-02-16T13:36:04.704Z,13.07
2019-02-16T13:38:55.574Z,14.53
2019-02-16T13:41:36.785Z,12.03
2019-02-16T13:44:20.450Z,11.43
2019-02-16T13:47:23.546Z,19.03
2019-02-16T13:50:02.922Z,12.63
2019-02-16T13:52:53.278Z,15.77
2019-02-16T14:01:32.038Z,14.17
2019-02-16T14:04:30.808Z,14.60
2019-02-16T14:07:12.667Z,13.50
2019-02-16T14:10:01.800Z,15.00
2019-02-16T14:12:51.179Z,13.50
2019-02-16T14:15:54.610Z,10.53
2019-02-16T14:18:26.369Z,15.80
2019-02-16T14:20:58.258Z,13.20
2019-02-16T14:23:29.911Z,11.33
2019-02-16T14:31:04.281Z,16.70
2019-02-16T14:33:36.291Z,19.10
2019-02-16T14:36:09.623Z,15.27
2019-02-16T14:38:50.301Z,14.17
2019-02-16T14:41:21.998Z,11.47
2019-02-16T14:43:53.851Z,11.90
2019-02-16T14:46:26.712Z,15.57
2019-02-16T14:48:59.729Z,15.83
2019-02-16T14:51:31.504Z,11.00
2019-02-16T14:54:03.218Z,17.80
2019-02-16T14:56:34.943Z,10.90
2019-02-16T14:59:06.584Z,9.57
2019-02-16T15:01:38.351Z,11.77
2019-02-16T15:04:10.119Z,11.23
2019-02-16T15:06:43.090Z,10.80
2019-02-16T15:09:14.833Z,9.33
2019-02-16T15:11:46.558Z,16.60
2019-02-16T15:14:18.236Z,12.17
2019-02-16T15:16:50.810Z,9.60
2019-02-16T15:19:22.666Z,8.80
2019-02-16T15:21:54.895Z,9.80
2019-02-16T15:24:26.578Z,9.00
2019-02-16T15:26:59.368Z,7.70
2019-02-16T15:29:31.293Z,12.17
2019-02-16T15:32:03.517Z,11.13
2019-02-16T15:34:35.465Z,11.60
2019-02-16T15:37:07.700Z,12.37
2019-02-16T15:39:39.589Z,16.10
2019-02-16T15:42:11.515Z,12.90
2019-02-16T15:44:43.225Z,11.20
2019-02-16T15:47:15.383Z,14.87
2019-02-16T15:49:47.031Z,13.40
2019-02-16T15:52:18.944Z,19.00
2019-02-16T15:54:50.854Z,14.63
2019-02-16T15:57:25.694Z,12.83
2019-02-16T15:59:57.609Z,14.53
2019-02-16T16:02:29.274Z,10.43
2019-02-16T16:05:01.746Z,12.90
2019-02-16T16:07:33.529Z,10.87
2019-02-16T16:10:27.197Z,14.10
2019-02-16T16:13:07.457Z,20.53
2019-02-16T16:15:57.494Z,17.43
2019-02-16T16:18:44.348Z,12.83
2019-02-16T16:21:33.486Z,16.30
2019-02-16T16:24:42.439Z,16.17
2019-02-16T16:27:38.901Z,16.60
2019-02-16T16:30:28.444Z,12.50
2019-02-16T16:33:24.823Z,17.63
2019-02-16T16:36:21.682Z,11.30
2019-02-16T16:39:10.507Z,14.20
2019-02-16T16:42:10.518Z,11.87
2019-02-16T16:44:58.391Z,11.70
2019-02-16T16:48:01.039Z,22.50
2019-02-16T16:50:53.274Z,21.93
2019-02-16T16:53:47.677Z,30.47
2019-02-16T16:56:30.549Z,28.90
2019-02-16T16:59:21.111Z,24.43
2019-02-16T17:02:23.912Z,21.53
2019-02-16T17:05:03.828Z,15.00
2019-02-16T17:07:55.242Z,18.03
2019-02-16T17:10:45.810Z,16.37
2019-02-16T17:13:51.539Z,13.10
2019-02-16T17:16:37.794Z,9.77
2019-02-16T17:19:28.729Z,14.13
2019-02-16T17:22:18.161Z,16.17
2019-02-16T17:25:05.345Z,13.17
2019-02-16T17:27:50.709Z,11.40
2019-02-16T17:30:34.972Z,13.77
2019-02-16T17:33:24.614Z,13.90
2019-02-16T17:36:21.128Z,14.50
2019-02-16T17:39:20.506Z,12.30
2019-02-16T17:42:10.234Z,10.90
2019-02-16T17:44:53.081Z,13.80
2019-02-16T17:47:41.781Z,11.83
2019-02-16T17:50:32.351Z,17.40
2019-02-16T17:53:23.001Z,10.47
2019-02-16T17:56:25.818Z,13.50
2019-02-16T17:59:19.465Z,13.17
2019-02-16T18:01:59.633Z,15.03
2019-02-16T18:05:08.721Z,11.40
2019-02-16T18:07:51.208Z,11.40
2019-02-16T18:10:50.660Z,13.83
2019-02-16T18:13:47.599Z,9.73
2019-02-16T18:16:47.940Z,10.23
2019-02-16T18:19:34.033Z,18.50
2019-02-16T18:22:30.466Z,17.83
2019-02-16T18:25:19.586Z,16.37
2019-02-16T18:28:12.685Z,15.73
2019-02-16T18:31:07.962Z,15.03
2019-02-16T18:33:58.522Z,16.93
2019-02-16T18:36:45.171Z,15.00
2019-02-16T18:39:44.619Z,12.23
2019-02-16T18:42:33.935Z,13.20
2019-02-16T18:45:21.683Z,14.47
2019-02-16T18:48:07.162Z,8.90
2019-02-16T18:51:05.001Z,14.80
2019-02-16T18:54:01.381Z,18.70
2019-02-16T18:56:51.422Z,22.17
2019-02-16T18:59:51.242Z,19.77
2019-02-16T19:02:35.825Z,21.93
2019-02-16T19:05:22.897Z,17.67
2019-02-16T19:08:12.360Z,15.23
2019-02-16T19:11:10.146Z,17.33
2019-02-16T19:13:59.593Z,15.77
2019-02-16T19:16:51.256Z,8.37
2019-02-16T19:19:40.529Z,9.73
2019-02-16T19:22:21.765Z,14.97
2019-02-16T19:25:12.447Z,10.40
2019-02-16T19:28:00.165Z,7.73
2019-02-16T19:30:54.600Z,10.37
2019-02-16T19:33:43.890Z,7.67
2019-02-16T19:36:26.931Z,10.73
2019-02-16T19:39:32.784Z,12.60
2019-02-16T19:42:26.150Z,9.27
2019-02-16T19:45:15.422Z,10.00
2019-02-16T19:48:24.003Z,18.60
2019-02-16T19:51:17.583Z,15.60
2019-02-16T19:54:05.908Z,15.73
2019-02-16T19:56:59.229Z,14.10
2019-02-16T19:59:43.134Z,15.70
2019-02-16T20:02:43.126Z,11.73
2019-02-16T20:05:26.422Z,8.73
2019-02-16T20:08:11.385Z,11.03
2019-02-16T20:10:50.028Z,9.17
2019-02-16T20:13:40.650Z,12.77
2019-02-16T20:16:41.171Z,10.57
2019-02-16T20:19:36.387Z,18.30
2019-02-16T20:22:26.922Z,9.70
2019-02-16T20:25:11.700Z,13.80
2019-02-16T20:28:05.294Z,9.73
2019-02-16T20:30:54.708Z,10.87
2019-02-16T20:36:39.357Z,12.20
2019-02-16T20:39:28.855Z,7.30
2019-02-16T20:42:20.157Z,13.43
2019-02-16T20:45:11.057Z,11.60
2019-02-16T20:48:16.932Z,9.73
2019-02-16T20:51:07.473Z,9.80
2019-02-16T20:53:58.105Z,18.80
2019-02-16T20:56:41.382Z,19.07
2019-02-16T20:59:32.485Z,30.97
2019-02-16T21:02:26.580Z,26.70
2019-02-16T21:05:17.535Z,34.57
2019-02-16T21:08:10.270Z,25.53
2019-02-16T21:10:49.745Z,28.10
2019-02-16T21:13:53.872Z,28.63
2019-02-16T21:17:01.200Z,25.80
2019-02-16T21:19:39.955Z,17.43
2019-02-16T21:22:21.708Z,17.00
2019-02-16T21:25:12.324Z,19.63
2019-02-16T21:28:03.002Z,19.20
2019-02-16T21:30:44.542Z,22.60
2019-02-16T21:33:38.296Z,15.50
2019-02-16T21:36:31.639Z,17.27
2019-02-16T21:39:25.053Z,18.73
2019-02-16T21:42:03.108Z,19.40
2019-02-16T21:44:55.162Z,17.70
2019-02-16T21:47:45.914Z,18.63
2019-02-16T21:50:39.779Z,15.13
2019-02-16T21:53:33.521Z,16.63
2019-02-16T21:56:28.021Z,17.20
2019-02-16T21:59:21.582Z,15.83
2019-02-16T22:02:10.823Z,16.60
2019-02-16T22:04:52.497Z,18.20
2019-02-16T22:07:48.408Z,18.27
2019-02-16T22:10:38.609Z,13.17
2019-02-16T22:13:10.352Z,19.10
2019-02-16T22:15:44.071Z,15.17
2019-02-16T22:18:16.081Z,14.10
2019-02-16T22:20:48.126Z,15.50
2019-02-16T22:23:19.849Z,11.87
2019-02-16T22:25:52.052Z,13.37
2019-02-16T22:28:30.889Z,12.20
2019-02-16T22:30:57.673Z,12.40
2019-02-16T22:33:35.403Z,13.07
2019-02-16T22:36:07.679Z,10.20
2019-02-16T22:38:43.880Z,10.47
2019-02-16T22:41:16.262Z,15.00
2019-02-16T22:43:48.380Z,11.23
2019-02-16T22:46:20.157Z,16.03
2019-02-16T22:48:53.473Z,13.40
2019-02-16T22:51:25.196Z,13.80
2019-02-16T22:53:56.860Z,21.00
2019-02-16T22:56:28.545Z,21.30
2019-02-16T22:59:00.248Z,21.40
2019-02-16T23:01:32.425Z,19.13
2019-02-16T23:04:04.145Z,19.43
2019-02-16T23:06:35.860Z,19.80
2019-02-16T23:09:21.282Z,20.27
2019-02-16T23:11:52.977Z,15.93
2019-02-16T23:14:24.813Z,16.80
2019-02-16T23:16:56.557Z,19.43
2019-02-16T23:19:28.206Z,16.17
2019-02-16T23:21:59.956Z,14.13
2019-02-16T23:24:31.668Z,13.43
2019-02-16T23:27:03.724Z,11.60
2019-02-16T23:29:35.778Z,17.97
2019-02-16T23:32:07.630Z,14.20
2019-02-16T23:34:39.226Z,14.80
2019-02-16T23:37:10.952Z,12.30
2019-02-16T23:39:42.580Z,11.77
2019-02-16T23:42:14.319Z,11.47
2019-02-16T23:44:46.075Z,12.80
2019-02-16T23:47:17.961Z,12.03
2019-02-16T23:49:49.581Z,10.70
2019-02-16T23:52:21.223Z,11.70
2019-02-16T23:54:53.154Z,10.17
2019-02-16T23:57:24.846Z,12.50
2019-02-16T23:59:56.522Z,14.13
